Time;durP1;ratioP1;P1;durP2;ratioP2;P2;SDS_P1;SDS_P2;PMS_P1;PMS_P2;Temp;Humidity;BMP_temperature;BMP_pressure;BME280_temperature;BME280_humidity;BME280_pressure;Samples;Min_cycle;Max_cycle;Signal;HPM_P1;HPM_P2
2022/06/17 00:00:26;;;;;;;0.90;0.68;;;20.20;98.40;;;;;;5115357;28;20533;-57
2022/06/17 00:02:53;;;;;;;0.73;0.73;;;20.20;98.40;;;;;;5115311;28;20177;-57
2022/06/17 00:05:20;;;;;;;0.88;0.80;;;20.20;98.70;;;;;;5114056;28;20185;-57
2022/06/17 00:07:46;;;;;;;1.17;1.00;;;20.20;98.70;;;;;;5115403;28;20641;-57
2022/06/17 00:10:23;;;;;;;1.20;1.08;;;20.20;99.10;;;;;;5113632;28;20201;-57
2022/06/17 00:12:50;;;;;;;0.82;0.70;;;20.10;99.30;;;;;;5115180;28;20169;-57
2022/06/17 00:15:16;;;;;;;0.82;0.75;;;20.10;99.40;;;;;;5096853;28;20177;-57
2022/06/17 00:17:54;;;;;;;1.23;1.13;;;20.00;99.70;;;;;;5114920;28;20173;-57
2022/06/17 00:20:22;;;;;;;1.63;1.33;;;19.90;99.90;;;;;;5114884;28;20188;-57
2022/06/17 00:22:48;;;;;;;1.50;1.40;;;19.90;99.90;;;;;;5115054;28;20272;-57
2022/06/17 00:25:15;;;;;;;0.60;0.60;;;19.80;99.90;;;;;;5114881;28;20205;-57
2022/06/17 00:27:41;;;;;;;0.47;0.47;;;19.80;99.90;;;;;;5114774;28;20173;-57
2022/06/17 00:30:16;;;;;;;0.45;0.45;;;19.70;99.90;;;;;;5114684;28;20277;-57
2022/06/17 00:32:42;;;;;;;0.68;0.63;;;19.60;99.90;;;;;;5114774;28;20176;-57
2022/06/17 00:35:07;;;;;;;0.60;0.60;;;19.60;99.90;;;;;;5113200;28;20657;-57
2022/06/17 00:37:33;;;;;;;1.00;0.85;;;19.60;99.90;;;;;;5113590;28;20173;-57
2022/06/17 00:39:59;;;;;;;1.10;1.10;;;19.50;99.90;;;;;;5114467;28;20188;-57
2022/06/17 00:42:25;;;;;;;0.80;0.73;;;19.40;99.90;;;;;;5114560;28;20174;-57
2022/06/17 00:45:11;;;;;;;0.73;0.73;;;19.40;99.90;;;;;;5113401;28;20193;-57
2022/06/17 00:47:57;;;;;;;0.80;0.60;;;19.30;99.90;;;;;;5114489;28;20202;-57
2022/06/17 00:50:37;;;;;;;0.77;0.77;;;19.30;99.90;;;;;;5113872;28;20611;-57
2022/06/17 00:53:20;;;;;;;0.80;0.80;;;19.20;99.90;;;;;;5114023;28;20165;-57
2022/06/17 00:56:09;;;;;;;0.93;0.77;;;19.20;99.90;;;;;;5114234;28;20169;-57
2022/06/17 00:58:55;;;;;;;0.90;0.75;;;19.20;99.90;;;;;;5114330;28;20169;-57
2022/06/17 01:01:24;;;;;;;0.90;0.85;;;19.10;99.90;;;;;;5112929;28;20634;-57
2022/06/17 01:03:56;;;;;;;0.80;0.80;;;19.10;99.90;;;;;;5114140;28;20177;-57
2022/06/17 01:06:30;;;;;;;0.75;0.70;;;19.10;99.90;;;;;;5114073;28;20212;-57
2022/06/17 01:11:50;;;;;;;0.88;0.70;;;19.10;99.90;;;;;;5114315;28;20195;-57
2022/06/17 01:14:18;;;;;;;0.60;0.60;;;19.00;99.90;;;;;;5112774;28;20169;-57
2022/06/17 01:16:45;;;;;;;1.13;1.05;;;19.00;99.90;;;;;;5113865;28;20214;-57
2022/06/17 01:19:16;;;;;;;0.98;0.88;;;19.00;99.90;;;;;;5112933;28;20684;-57
2022/06/17 01:22:20;;;;;;;0.73;0.73;;;19.00;99.90;;;;;;5114082;28;20649;-57
2022/06/17 01:24:47;;;;;;;0.82;0.82;;;18.90;99.90;;;;;;5097414;28;20184;-56
2022/06/17 01:27:17;;;;;;;1.17;0.90;;;18.90;99.90;;;;;;5113719;28;20172;-57
2022/06/17 01:29:43;;;;;;;1.00;0.85;;;18.90;99.90;;;;;;5113819;28;20226;-57
2022/06/17 01:32:09;;;;;;;0.77;0.75;;;18.90;99.90;;;;;;5113899;28;20635;-57
2022/06/17 01:34:35;;;;;;;0.98;0.88;;;18.90;99.90;;;;;;5113804;28;20180;-57
2022/06/17 01:37:02;;;;;;;0.80;0.80;;;18.80;99.90;;;;;;5113708;28;20173;-57
2022/06/17 01:39:27;;;;;;;1.17;0.93;;;18.90;99.90;;;;;;5113944;28;20634;-57
2022/06/17 01:41:53;;;;;;;0.75;0.75;;;18.90;99.90;;;;;;5113423;28;20181;-57
2022/06/17 01:44:25;;;;;;;0.77;0.77;;;18.80;99.90;;;;;;5113919;28;20173;-57
2022/06/17 01:46:56;;;;;;;0.82;0.82;;;18.70;99.90;;;;;;5113574;28;20173;-57
2022/06/17 01:49:27;;;;;;;0.90;0.70;;;18.70;99.90;;;;;;5113612;28;20760;-57
2022/06/17 01:52:07;;;;;;;1.40;1.02;;;18.70;99.90;;;;;;5112260;28;20173;-57
2022/06/17 01:54:38;;;;;;;0.88;0.85;;;18.70;99.90;;;;;;5113748;28;20250;-57
2022/06/17 01:57:07;;;;;;;0.88;0.82;;;18.70;99.90;;;;;;5113677;28;20161;-57
2022/06/17 01:59:45;;;;;;;0.95;0.85;;;18.70;99.90;;;;;;5113878;28;20173;-57
2022/06/17 02:02:13;;;;;;;1.02;0.90;;;18.70;99.90;;;;;;5113723;28;20623;-57
2022/06/17 02:04:44;;;;;;;1.48;0.90;;;18.60;99.90;;;;;;5117383;28;20173;-57
2022/06/17 02:07:16;;;;;;;1.02;0.95;;;18.70;99.90;;;;;;5117732;28;20228;-57
2022/06/17 02:09:42;;;;;;;0.52;0.52;;;18.70;99.90;;;;;;5117509;28;20292;-57
2022/06/17 02:12:08;;;;;;;0.95;0.90;;;18.70;99.90;;;;;;5117482;28;20218;-57
2022/06/17 02:14:34;;;;;;;0.80;0.80;;;18.70;99.90;;;;;;5117383;28;20218;-57
2022/06/17 02:17:01;;;;;;;1.25;0.98;;;18.70;99.90;;;;;;5116080;28;20181;-57
2022/06/17 02:19:30;;;;;;;1.02;0.68;;;18.70;99.90;;;;;;5115926;28;20173;-57
2022/06/17 02:22:17;;;;;;;1.05;0.77;;;18.70;99.90;;;;;;5117161;28;20257;-57
2022/06/17 02:24:43;;;;;;;1.17;0.88;;;18.70;99.90;;;;;;5117054;28;20618;-57
2022/06/17 02:27:12;;;;;;;1.17;0.90;;;18.60;99.90;;;;;;5117076;28;20519;-57
2022/06/17 02:29:41;;;;;;;0.80;0.80;;;18.60;99.90;;;;;;5116910;28;20204;-57
2022/06/17 02:32:08;;;;;;;1.17;0.90;;;18.60;99.90;;;;;;5116920;28;20190;-58
2022/06/17 02:34:39;;;;;;;1.00;0.75;;;18.60;99.90;;;;;;5116239;28;20205;-57
2022/06/17 02:37:15;;;;;;;1.02;0.70;;;18.60;99.90;;;;;;5117035;28;20185;-57
2022/06/17 02:39:47;;;;;;;0.98;0.77;;;18.60;99.90;;;;;;5116966;28;20641;-58
2022/06/17 02:42:28;;;;;;;0.70;0.70;;;18.60;99.90;;;;;;5116855;28;20565;-57
2022/06/17 02:45:01;;;;;;;0.93;0.52;;;18.60;99.90;;;;;;5117108;28;20161;-57
2022/06/17 02:47:29;;;;;;;1.08;1.00;;;18.60;99.90;;;;;;5116979;28;20175;-57
2022/06/17 02:49:55;;;;;;;0.75;0.75;;;18.60;99.90;;;;;;5115411;28;20708;-57
2022/06/17 02:52:31;;;;;;;1.17;1.08;;;18.60;99.90;;;;;;5116611;28;20173;-56
2022/06/17 02:55:00;;;;;;;0.68;0.68;;;18.60;99.90;;;;;;5116633;28;20173;-57
2022/06/17 02:57:28;;;;;;;1.30;1.20;;;18.60;99.90;;;;;;5116679;27;20526;-57
2022/06/17 03:00:05;;;;;;;1.33;1.20;;;18.60;99.90;;;;;;5116190;28;20189;-57
2022/06/17 03:02:38;;;;;;;0.73;0.73;;;18.60;99.90;;;;;;5116733;28;20575;-57
2022/06/17 03:05:14;;;;;;;1.17;0.90;;;18.60;99.90;;;;;;5116325;28;20174;-57
2022/06/17 03:07:40;;;;;;;1.13;0.95;;;18.60;99.90;;;;;;5116534;28;20264;-57
2022/06/17 03:10:15;;;;;;;0.70;0.70;;;18.60;99.90;;;;;;5116361;28;20216;-57
2022/06/17 03:12:44;;;;;;;0.90;0.80;;;18.60;99.90;;;;;;5116430;27;20165;-57
2022/06/17 03:15:13;;;;;;;0.85;0.82;;;18.60;99.90;;;;;;5115028;28;20173;-57
2022/06/17 03:17:41;;;;;;;0.80;0.80;;;18.60;99.90;;;;;;5116078;28;20165;-57
2022/06/17 03:20:11;;;;;;;0.70;0.70;;;18.60;99.90;;;;;;5116394;28;20523;-57
2022/06/17 03:22:38;;;;;;;0.70;0.70;;;18.70;99.90;;;;;;5116136;28;20165;-57
2022/06/17 03:25:13;;;;;;;1.05;0.85;;;18.70;99.90;;;;;;5116010;28;20250;-57
2022/06/17 03:27:56;;;;;;;0.90;0.63;;;18.70;99.90;;;;;;5116394;28;20172;-57
2022/06/17 03:30:31;;;;;;;0.50;0.50;;;18.60;99.90;;;;;;5114552;28;20216;-57
2022/06/17 03:33:10;;;;;;;1.08;0.88;;;18.70;99.90;;;;;;5115805;28;20169;-57
2022/06/17 03:35:39;;;;;;;0.80;0.77;;;18.60;99.90;;;;;;5116237;28;20188;-57
2022/06/17 03:38:25;;;;;;;1.20;1.10;;;18.60;99.90;;;;;;5115659;28;20170;-57
2022/06/17 03:40:56;;;;;;;0.85;0.60;;;18.70;99.90;;;;;;5115956;28;20252;-57
2022/06/17 03:43:29;;;;;;;0.88;0.88;;;18.70;99.90;;;;;;5115727;28;20180;-57
2022/06/17 03:46:04;;;;;;;0.60;0.60;;;18.60;99.90;;;;;;5115700;28;20179;-57
2022/06/17 03:48:35;;;;;;;0.70;0.63;;;18.60;99.90;;;;;;5115543;28;20169;-57
2022/06/17 03:51:01;;;;;;;0.80;0.80;;;18.60;99.90;;;;;;5115366;28;20511;-57
2022/06/17 03:53:31;;;;;;;0.50;0.50;;;18.60;99.90;;;;;;5115336;28;20174;-57
2022/06/17 03:56:03;;;;;;;0.57;0.57;;;18.60;99.90;;;;;;5115454;28;20208;-57
2022/06/17 03:58:28;;;;;;;1.00;0.73;;;18.50;99.90;;;;;;5115549;28;20568;-57
2022/06/17 04:01:00;;;;;;;0.93;0.60;;;18.60;99.90;;;;;;5115362;28;20177;-57
2022/06/17 04:03:30;;;;;;;1.02;0.90;;;18.60;99.90;;;;;;5115191;28;20187;-57
2022/06/17 04:06:24;;;;;;;0.57;0.57;;;18.60;99.90;;;;;;5115311;28;20180;-58
2022/06/17 04:08:59;;;;;;;0.80;0.63;;;18.60;99.90;;;;;;5112736;28;20252;-57
2022/06/17 04:11:33;;;;;;;0.95;0.77;;;18.60;99.90;;;;;;5115062;28;20160;-57
2022/06/17 04:14:03;;;;;;;1.13;0.93;;;18.60;99.90;;;;;;5115293;28;20252;-57
2022/06/17 04:16:40;;;;;;;0.80;0.75;;;18.70;99.90;;;;;;5115164;28;20173;-58
2022/06/17 04:19:18;;;;;;;0.77;0.60;;;18.70;99.90;;;;;;5114857;28;20515;-58
2022/06/17 04:21:44;;;;;;;0.60;0.60;;;18.60;99.90;;;;;;5114965;28;20622;-58
2022/06/17 04:24:16;;;;;;;0.85;0.80;;;18.70;99.90;;;;;;5114728;28;20161;-58
2022/06/17 04:26:44;;;;;;;0.60;0.60;;;18.60;99.90;;;;;;5115002;28;20230;-57
2022/06/17 04:29:20;;;;;;;0.63;0.57;;;18.60;99.90;;;;;;5114841;28;20648;-58
2022/06/17 04:31:56;;;;;;;0.80;0.80;;;18.60;99.90;;;;;;5114772;28;20252;-57
2022/06/17 04:34:22;;;;;;;0.50;0.50;;;18.60;99.90;;;;;;5114888;28;20172;-57
2022/06/17 04:36:54;;;;;;;1.23;0.75;;;18.50;99.90;;;;;;5113147;28;20192;-58
2022/06/17 04:39:46;;;;;;;0.70;0.70;;;18.60;99.90;;;;;;5114774;28;20185;-58
2022/06/17 04:42:19;;;;;;;1.13;0.65;;;18.60;99.90;;;;;;5114569;28;20630;-57
2022/06/17 04:44:45;;;;;;;0.65;0.65;;;18.60;99.90;;;;;;5114447;28;20180;-57
2022/06/17 04:47:18;;;;;;;0.38;0.38;;;18.60;99.90;;;;;;5113055;28;20173;-57
2022/06/17 04:49:56;;;;;;;0.80;0.80;;;18.70;99.90;;;;;;5114391;28;20212;-58
2022/06/17 04:52:28;;;;;;;0.60;0.60;;;18.70;99.90;;;;;;5114445;28;20173;-58
2022/06/17 04:54:57;;;;;;;0.90;0.73;;;18.70;99.90;;;;;;5114290;28;20157;-58
2022/06/17 04:57:23;;;;;;;1.10;0.85;;;18.80;99.90;;;;;;5114231;28;20207;-57
2022/06/17 04:59:49;;;;;;;1.10;1.00;;;18.80;99.90;;;;;;5114125;28;20560;-58
2022/06/17 05:02:23;;;;;;;0.80;0.80;;;18.80;99.90;;;;;;5112918;28;20178;-58
2022/06/17 05:04:52;;;;;;;2.90;1.00;;;18.80;99.90;;;;;;5114003;28;20206;-59
2022/06/17 05:07:18;;;;;;;1.20;0.80;;;18.80;99.90;;;;;;5114086;28;20245;-59
2022/06/17 05:10:08;;;;;;;0.65;0.65;;;18.80;99.90;;;;;;5113692;28;20209;-59
2022/06/17 05:13:33;;;;;;;0.43;0.43;;;18.90;99.90;;;;;;5113803;28;20649;-59
2022/06/17 05:15:59;;;;;;;1.00;0.93;;;18.90;99.90;;;;;;5071218;28;20734;-59
2022/06/17 05:18:24;;;;;;;0.70;0.52;;;19.00;99.90;;;;;;5109966;28;20189;-59
2022/06/17 05:20:50;;;;;;;0.55;0.50;;;19.00;99.90;;;;;;5112748;28;20643;-58
2022/06/17 05:23:17;;;;;;;0.70;0.68;;;19.00;99.90;;;;;;5113774;28;20196;-58
2022/06/17 05:25:45;;;;;;;0.82;0.55;;;19.10;99.90;;;;;;5113870;28;20174;-59
2022/06/17 05:28:18;;;;;;;0.73;0.68;;;19.20;99.90;;;;;;5113770;28;20177;-58
2022/06/17 05:30:51;;;;;;;2.58;0.80;;;19.30;99.90;;;;;;5113698;28;20218;-59
2022/06/17 05:33:18;;;;;;;0.68;0.60;;;19.30;99.90;;;;;;5113598;28;20569;-59
2022/06/17 05:35:44;;;;;;;0.60;0.60;;;19.30;99.90;;;;;;5113763;28;20210;-59
2022/06/17 05:38:10;;;;;;;0.50;0.50;;;19.30;99.90;;;;;;5117161;28;20172;-59
2022/06/17 05:40:38;;;;;;;0.80;0.80;;;19.30;99.90;;;;;;5120423;28;20645;-58
2022/06/17 05:43:04;;;;;;;0.70;0.70;;;19.30;99.90;;;;;;5120407;28;20701;-59
2022/06/17 05:45:30;;;;;;;0.63;0.63;;;19.40;99.90;;;;;;5120319;28;20169;-59
2022/06/17 05:47:56;;;;;;;0.73;0.73;;;19.40;99.90;;;;;;5120319;28;20619;-58
2022/06/17 05:50:24;;;;;;;0.52;0.52;;;19.50;99.90;;;;;;5102248;28;20268;-58
2022/06/17 05:52:56;;;;;;;1.02;0.93;;;19.50;99.90;;;;;;5119395;28;20173;-59
2022/06/17 05:55:24;;;;;;;1.67;0.70;;;19.60;99.90;;;;;;5120425;28;20221;-58
2022/06/17 05:57:50;;;;;;;1.05;0.52;;;19.50;99.90;;;;;;5120408;28;20165;-58
2022/06/17 06:00:17;;;;;;;0.93;0.80;;;19.50;99.90;;;;;;5120297;28;20173;-59
2022/06/17 06:02:43;;;;;;;0.60;0.60;;;19.40;99.90;;;;;;5120471;28;20173;-59
2022/06/17 06:05:13;;;;;;;1.17;0.68;;;19.30;99.90;;;;;;5120187;28;20172;-58
2022/06/17 06:07:39;;;;;;;0.40;0.40;;;19.20;99.90;;;;;;5120132;27;20180;-58
2022/06/17 06:10:07;;;;;;;0.50;0.50;;;19.20;99.90;;;;;;5118616;28;20205;-60
2022/06/17 06:15:17;;;;;;;2.53;0.60;;;19.50;99.90;;;;;;5119163;28;20187;-59
2022/06/17 06:17:47;;;;;;;0.73;0.63;;;19.60;99.90;;;;;;5120080;28;20169;-58
2022/06/17 06:20:14;;;;;;;0.50;0.50;;;19.90;99.90;;;;;;5119912;28;20177;-58
2022/06/17 06:22:40;;;;;;;0.47;0.47;;;20.20;99.90;;;;;;5119878;28;20177;-58
2022/06/17 06:25:06;;;;;;;0.73;0.70;;;20.30;99.90;;;;;;5118563;27;20241;-59
2022/06/17 06:27:33;;;;;;;0.73;0.65;;;20.40;99.90;;;;;;5120125;27;20199;-59
2022/06/17 06:29:58;;;;;;;0.60;0.60;;;20.40;99.90;;;;;;5119721;27;20213;-59
2022/06/17 06:32:24;;;;;;;0.47;0.47;;;20.50;99.90;;;;;;5119844;28;20293;-58
2022/06/17 06:34:51;;;;;;;0.45;0.45;;;20.60;99.90;;;;;;5118546;28;20619;-58
2022/06/17 06:37:17;;;;;;;1.17;0.82;;;20.80;99.90;;;;;;5119638;27;20225;-59
2022/06/17 06:39:43;;;;;;;0.40;0.40;;;21.00;99.90;;;;;;5119622;28;20176;-59
2022/06/17 06:42:08;;;;;;;0.40;0.40;;;21.30;99.90;;;;;;5119854;27;20173;-58
2022/06/17 06:44:34;;;;;;;1.50;0.88;;;21.30;99.90;;;;;;5118373;28;20189;-59
2022/06/17 06:47:00;;;;;;;0.52;0.50;;;21.50;99.90;;;;;;5119754;28;20165;-59
2022/06/17 06:49:26;;;;;;;0.40;0.40;;;21.70;99.90;;;;;;5117771;28;20201;-59
2022/06/17 06:51:51;;;;;;;0.60;0.60;;;21.70;99.90;;;;;;5116507;28;20569;-59
2022/06/17 06:54:17;;;;;;;0.50;0.50;;;21.80;99.90;;;;;;5114980;28;20310;-59
2022/06/17 06:56:43;;;;;;;0.43;0.43;;;21.90;99.90;;;;;;5115526;28;20219;-58
2022/06/17 06:59:11;;;;;;;0.50;0.50;;;22.00;99.90;;;;;;5115063;28;20583;-58
2022/06/17 07:01:38;;;;;;;0.60;0.60;;;22.20;99.90;;;;;;5116197;28;20610;-59
2022/06/17 07:04:04;;;;;;;0.50;0.50;;;22.50;99.90;;;;;;5116092;28;20174;-59
2022/06/17 07:06:31;;;;;;;0.68;0.65;;;22.60;99.90;;;;;;5116233;28;20634;-57
2022/06/17 07:08:57;;;;;;;1.25;1.25;;;22.80;99.90;;;;;;5116065;28;20252;-57
2022/06/17 07:11:22;;;;;;;0.85;0.70;;;22.80;99.90;;;;;;5115769;28;20173;-59
2022/06/17 07:13:48;;;;;;;0.45;0.45;;;22.90;99.60;;;;;;5114770;28;20169;-60
2022/06/17 07:16:14;;;;;;;0.40;0.40;;;22.90;99.30;;;;;;5115756;28;20185;-59
2022/06/17 07:18:40;;;;;;;0.30;0.30;;;23.20;99.90;;;;;;5115875;28;20173;-59
2022/06/17 07:21:10;;;;;;;0.45;0.45;;;23.30;99.30;;;;;;5115677;28;20218;-59
2022/06/17 07:23:39;;;;;;;0.50;0.40;;;23.30;99.40;;;;;;5115670;28;20169;-59
2022/06/17 07:26:25;;;;;;;0.38;0.38;;;23.40;99.40;;;;;;5115795;28;20181;-59
2022/06/17 07:28:52;;;;;;;0.40;0.40;;;23.60;98.50;;;;;;5115653;28;20177;-59
2022/06/17 07:31:19;;;;;;;0.50;0.50;;;23.90;99.90;;;;;;5114370;28;20178;-60
2022/06/17 07:33:45;;;;;;;0.28;0.28;;;23.90;98.80;;;;;;5114111;28;20177;-59
2022/06/17 07:39:53;;;;;;;0.50;0.50;;;24.20;98.70;;;;;;5115454;28;20173;-59
2022/06/17 07:41:43;;;;;;;0.25;0.25;;;24.20;98.30;;;;;;5115766;28;20192;-57
2022/06/17 07:44:09;;;;;;;0.75;0.40;;;24.20;98.90;;;;;;5115196;28;20173;-57
2022/06/17 07:46:35;;;;;;;0.22;0.22;;;24.30;98.50;;;;;;5115129;28;20181;-57
2022/06/17 07:49:01;;;;;;;0.60;0.28;;;24.50;97.60;;;;;;5115250;28;20224;-57
2022/06/17 07:51:27;;;;;;;0.30;0.30;;;24.70;96.90;;;;;;5115380;28;20211;-57
2022/06/17 07:53:52;;;;;;;0.68;0.50;;;24.90;97.20;;;;;;5096966;28;20181;-57
2022/06/17 07:56:20;;;;;;;0.50;0.50;;;25.10;97.40;;;;;;5114124;28;20170;-57
2022/06/17 07:58:46;;;;;;;0.50;0.50;;;25.20;96.50;;;;;;5113581;28;20169;-58
2022/06/17 08:01:13;;;;;;;0.22;0.22;;;25.20;96.50;;;;;;5114360;28;20649;-58
2022/06/17 08:03:39;;;;;;;0.47;0.47;;;25.40;96.40;;;;;;5114830;28;20173;-58
2022/06/17 08:06:05;;;;;;;0.20;0.20;;;25.20;95.90;;;;;;5113954;28;20232;-58
2022/06/17 08:08:32;;;;;;;0.55;0.55;;;25.30;95.80;;;;;;5115124;28;20197;-58
2022/06/17 08:11:01;;;;;;;0.45;0.45;;;25.50;96.70;;;;;;5114685;28;20250;-58
2022/06/17 08:13:27;;;;;;;0.50;0.50;;;25.50;96.00;;;;;;5114667;28;20205;-58
2022/06/17 08:15:57;;;;;;;0.45;0.45;;;25.50;94.60;;;;;;5114536;28;20638;-58
2022/06/17 08:18:23;;;;;;;0.40;0.40;;;25.70;95.50;;;;;;5114913;28;20185;-58
2022/06/17 08:20:49;;;;;;;0.40;0.40;;;25.80;95.00;;;;;;5114801;28;20256;-58
2022/06/17 08:23:15;;;;;;;0.57;0.47;;;25.80;94.50;;;;;;5113397;28;20618;-58
2022/06/17 08:25:42;;;;;;;0.40;0.40;;;25.60;94.60;;;;;;5114580;28;20189;-58
2022/06/17 08:28:09;;;;;;;0.47;0.47;;;25.90;95.20;;;;;;5096189;28;20530;-58
2022/06/17 08:30:39;;;;;;;0.40;0.40;;;26.00;93.50;;;;;;5114626;28;20240;-58
2022/06/17 08:33:05;;;;;;;0.77;0.30;;;26.00;93.10;;;;;;5114433;28;20173;-58
2022/06/17 08:35:32;;;;;;;0.30;0.30;;;26.10;94.30;;;;;;5114304;28;20219;-58
2022/06/17 08:38:02;;;;;;;0.10;0.10;;;26.30;93.80;;;;;;5114342;28;20197;-58
2022/06/17 08:40:34;;;;;;;0.57;0.32;;;26.40;93.60;;;;;;5114542;28;20256;-58
2022/06/17 08:43:31;;;;;;;0.35;0.35;;;26.30;92.70;;;;;;5114429;28;20248;-58
2022/06/17 08:46:02;;;;;;;0.22;0.22;;;26.30;92.60;;;;;;5113169;28;20273;-58
2022/06/17 08:48:39;;;;;;;0.20;0.20;;;26.40;94.00;;;;;;5114219;28;20205;-58
2022/06/17 08:51:12;;;;;;;0.20;0.20;;;26.70;94.50;;;;;;5113837;28;20565;-58
2022/06/17 08:54:11;;;;;;;0.40;0.40;;;26.60;93.20;;;;;;5114205;28;20209;-58
2022/06/17 08:57:06;;;;;;;0.40;0.40;;;26.80;92.90;;;;;;5114121;28;20197;-58
2022/06/17 08:59:54;;;;;;;0.57;0.45;;;26.90;92.60;;;;;;5113978;28;20196;-58
2022/06/17 09:02:33;;;;;;;0.20;0.20;;;27.10;92.50;;;;;;5112834;28;20242;-58
2022/06/17 09:05:21;;;;;;;0.50;0.50;;;27.10;92.40;;;;;;5113791;28;20172;-58
2022/06/17 09:08:26;;;;;;;0.30;0.30;;;27.20;92.40;;;;;;5113663;28;20283;-58
2022/06/17 09:11:06;;;;;;;0.35;0.32;;;27.50;92.70;;;;;;5079032;28;20248;-58
2022/06/17 09:13:49;;;;;;;0.40;0.40;;;27.50;92.10;;;;;;5112941;28;20169;-58
2022/06/17 09:16:23;;;;;;;0.30;0.30;;;27.40;92.10;;;;;;5113854;28;20225;-58
2022/06/17 09:18:56;;;;;;;0.30;0.30;;;27.70;92.30;;;;;;5113856;28;20167;-58
2022/06/17 09:21:31;;;;;;;0.30;0.30;;;27.80;91.60;;;;;;5113668;28;20181;-58
2022/06/17 09:24:02;;;;;;;1.48;0.43;;;28.00;90.80;;;;;;5113633;28;20172;-58
2022/06/17 09:26:42;;;;;;;0.52;0.52;;;27.70;91.90;;;;;;5113566;28;20183;-58
2022/06/17 09:29:11;;;;;;;0.30;0.30;;;27.80;91.80;;;;;;5113522;28;20295;-58
2022/06/17 09:31:55;;;;;;;0.68;0.40;;;27.90;90.60;;;;;;5113673;28;20254;-58
2022/06/17 09:34:44;;;;;;;0.40;0.30;;;27.90;92.40;;;;;;5112315;28;20165;-58
2022/06/17 09:37:40;;;;;;;0.60;0.40;;;28.10;91.40;;;;;;5113072;28;20189;-58
2022/06/17 09:40:23;;;;;;;0.30;0.30;;;28.10;91.50;;;;;;5113581;28;20173;-58
2022/06/17 09:43:06;;;;;;;0.30;0.30;;;28.30;91.20;;;;;;5113232;28;20169;-58
2022/06/17 09:45:48;;;;;;;0.30;0.30;;;28.20;90.30;;;;;;5113178;28;20169;-58
2022/06/17 09:48:20;;;;;;;1.20;1.10;;;28.30;91.10;;;;;;5113353;28;20177;-58
2022/06/17 09:50:57;;;;;;;0.30;0.30;;;28.40;88.90;;;;;;5113292;28;20612;-58
2022/06/17 09:53:32;;;;;;;0.40;0.40;;;28.50;87.30;;;;;;5113359;28;20169;-58
2022/06/17 09:56:16;;;;;;;0.70;0.40;;;28.30;87.10;;;;;;5113392;28;20199;-58
2022/06/17 09:58:56;;;;;;;0.55;0.50;;;28.50;88.80;;;;;;5113434;28;20169;-58
2022/06/17 10:01:24;;;;;;;0.30;0.30;;;28.70;89.40;;;;;;5113331;28;20676;-58
2022/06/17 10:03:50;;;;;;;0.38;0.38;;;28.90;89.10;;;;;;5113075;28;20197;-58
2022/06/17 10:06:22;;;;;;;0.20;0.20;;;28.70;87.20;;;;;;5112957;28;20201;-58
2022/06/17 10:09:46;;;;;;;0.30;0.30;;;28.80;89.70;;;;;;5113207;28;20205;-58
2022/06/17 10:12:29;;;;;;;0.40;0.40;;;28.90;86.80;;;;;;5067461;28;20184;-58
2022/06/17 10:15:03;;;;;;;0.20;0.20;;;29.10;85.30;;;;;;5113122;28;20230;-58
2022/06/17 10:21:00;;;;;;;0.52;0.40;;;29.10;82.40;;;;;;5107374;28;20307;-58
2022/06/17 10:23:50;;;;;;;0.20;0.20;;;29.30;87.90;;;;;;5114413;28;20245;-58
2022/06/17 10:26:33;;;;;;;0.30;0.30;;;29.20;83.60;;;;;;5116966;28;20537;-58
2022/06/17 10:29:16;;;;;;;0.30;0.30;;;29.20;84.50;;;;;;5116760;28;20193;-58
2022/06/17 10:31:47;;;;;;;0.32;0.32;;;29.50;85.50;;;;;;5116128;28;20244;-58
2022/06/17 10:34:19;;;;;;;0.30;0.28;;;29.40;83.70;;;;;;5116197;28;20181;-58
2022/06/17 10:36:46;;;;;;;0.30;0.30;;;29.20;82.90;;;;;;5116852;28;20179;-58
2022/06/17 10:39:18;;;;;;;0.20;0.20;;;29.50;82.00;;;;;;5115585;28;20181;-59
2022/06/17 10:41:44;;;;;;;0.30;0.30;;;29.40;81.30;;;;;;5116976;28;20161;-58
2022/06/17 10:44:16;;;;;;;0.40;0.40;;;29.60;82.40;;;;;;5116749;28;20180;-58
2022/06/17 10:46:49;;;;;;;0.45;0.40;;;29.90;84.00;;;;;;5116591;28;20260;-58
2022/06/17 10:49:26;;;;;;;0.47;0.30;;;29.90;79.70;;;;;;5114613;28;20205;-58
2022/06/17 10:51:54;;;;;;;0.20;0.20;;;29.70;80.20;;;;;;5116503;28;20172;-58
2022/06/17 10:54:22;;;;;;;0.30;0.30;;;29.70;78.70;;;;;;5116728;28;20696;-58
2022/06/17 10:57:06;;;;;;;0.55;0.30;;;29.80;80.60;;;;;;5116728;28;20277;-58
2022/06/17 10:59:39;;;;;;;0.20;0.20;;;29.90;79.80;;;;;;5116598;28;20557;-58
2022/06/17 11:02:05;;;;;;;0.30;0.25;;;30.00;79.20;;;;;;5116452;28;20180;-58
2022/06/17 11:04:39;;;;;;;0.32;0.30;;;29.80;78.90;;;;;;5116169;28;20181;-58
2022/06/17 11:07:14;;;;;;;0.50;0.40;;;29.80;78.20;;;;;;5116199;28;20290;-58
2022/06/17 11:09:54;;;;;;;0.50;0.50;;;29.90;79.20;;;;;;5116353;28;20293;-58
2022/06/17 11:12:27;;;;;;;0.20;0.20;;;29.90;77.40;;;;;;5116237;28;20169;-58
2022/06/17 11:14:56;;;;;;;0.30;0.30;;;30.10;79.20;;;;;;5116210;28;20531;-58
2022/06/17 11:17:38;;;;;;;0.20;0.20;;;30.20;79.80;;;;;;5116800;28;20177;-58
2022/06/17 11:20:25;;;;;;;0.35;0.35;;;30.10;78.40;;;;;;5116446;28;20172;-59
2022/06/17 11:22:52;;;;;;;0.30;0.30;;;30.30;80.00;;;;;;5116163;28;20196;-58
2022/06/17 11:25:38;;;;;;;0.30;0.30;;;30.40;80.20;;;;;;5116068;28;20188;-58
2022/06/17 11:28:24;;;;;;;0.20;0.20;;;30.10;78.70;;;;;;5116031;28;20219;-58
2022/06/17 11:30:59;;;;;;;0.30;0.28;;;30.20;80.80;;;;;;5115956;28;20566;-58
2022/06/17 11:33:27;;;;;;;0.20;0.20;;;30.30;80.10;;;;;;5115801;28;20173;-58
2022/06/17 11:36:06;;;;;;;0.20;0.20;;;30.40;77.40;;;;;;5114881;28;20170;-58
2022/06/17 11:38:33;;;;;;;0.35;0.30;;;30.30;78.70;;;;;;5115929;28;20209;-58
2022/06/17 11:41:00;;;;;;;0.40;0.40;;;30.50;81.20;;;;;;5115441;28;20173;-58
2022/06/17 11:43:38;;;;;;;0.40;0.40;;;30.40;79.90;;;;;;5115632;28;20260;-58
2022/06/17 11:46:18;;;;;;;0.30;0.30;;;30.20;77.40;;;;;;5115573;28;20169;-57
2022/06/17 11:48:55;;;;;;;0.20;0.20;;;30.40;77.30;;;;;;5115629;28;20169;-58
2022/06/17 11:51:32;;;;;;;0.22;0.22;;;30.60;77.00;;;;;;5115681;28;20200;-59
2022/06/17 11:54:04;;;;;;;0.95;0.50;;;30.70;75.90;;;;;;5115457;28;20173;-58
2022/06/17 11:56:38;;;;;;;0.40;0.40;;;30.70;77.90;;;;;;5115414;28;20173;-59
2022/06/17 11:59:44;;;;;;;0.50;0.50;;;31.00;77.00;;;;;;5115227;28;20543;-59
2022/06/17 12:02:10;;;;;;;0.38;0.22;;;30.80;78.50;;;;;;5052421;28;20537;-59
2022/06/17 12:04:50;;;;;;;0.35;0.35;;;30.70;77.30;;;;;;5052281;28;20175;-59
2022/06/17 12:07:22;;;;;;;0.30;0.30;;;30.70;76.60;;;;;;5079737;28;20287;-59
2022/06/17 12:09:58;;;;;;;0.30;0.30;;;30.80;76.10;;;;;;5115161;28;20212;-59
2022/06/17 12:12:25;;;;;;;0.32;0.32;;;30.80;77.90;;;;;;5113903;28;20525;-59
2022/06/17 12:14:58;;;;;;;0.43;0.43;;;31.00;76.50;;;;;;5114998;28;20177;-59
2022/06/17 12:17:25;;;;;;;0.30;0.30;;;30.90;75.80;;;;;;5114041;28;20173;-59
2022/06/17 12:19:51;;;;;;;0.28;0.28;;;30.90;77.80;;;;;;5113470;28;20173;-59
2022/06/17 12:22:25;;;;;;;0.50;0.40;;;31.00;76.70;;;;;;5112255;28;20802;-59
2022/06/17 12:25:14;;;;;;;0.28;0.28;;;31.00;76.70;;;;;;5111630;28;20249;-59
2022/06/17 12:27:54;;;;;;;0.40;0.32;;;31.10;78.30;;;;;;5111909;28;20158;-59
2022/06/17 12:30:28;;;;;;;0.40;0.30;;;31.20;77.70;;;;;;5113853;28;20233;-59
2022/06/17 12:33:05;;;;;;;0.73;0.40;;;31.40;76.70;;;;;;5113995;28;20165;-59
2022/06/17 12:35:40;;;;;;;0.10;0.10;;;31.20;75.50;;;;;;5113397;28;20169;-59
2022/06/17 12:38:26;;;;;;;0.70;0.50;;;31.10;77.80;;;;;;5114491;28;20160;-59
2022/06/17 12:41:06;;;;;;;0.30;0.30;;;31.00;76.80;;;;;;5114768;28;20165;-59
2022/06/17 12:43:45;;;;;;;0.20;0.20;;;31.20;77.40;;;;;;5113358;28;20172;-59
2022/06/17 12:46:21;;;;;;;0.20;0.20;;;31.10;75.80;;;;;;5114456;28;20165;-59
2022/06/17 12:53:13;;;;;;;0.28;0.22;;;30.90;73.00;;;;;;5114579;28;20193;-59
2022/06/17 12:55:00;;;;;;;0.40;0.40;;;31.00;77.30;;;;;;5114388;28;20183;-59
2022/06/17 12:57:58;;;;;;;0.30;0.30;;;31.20;77.00;;;;;;5114450;28;20173;-59
2022/06/17 13:00:34;;;;;;;0.43;0.40;;;31.30;79.40;;;;;;5114446;28;20183;-59
2022/06/17 13:03:14;;;;;;;0.20;0.20;;;31.10;76.30;;;;;;5114243;28;20165;-59
2022/06/17 13:05:45;;;;;;;0.17;0.17;;;31.10;75.30;;;;;;5114549;28;20177;-59
2022/06/17 13:08:35;;;;;;;0.20;0.10;;;31.20;78.80;;;;;;5113880;28;20185;-59
2022/06/17 13:11:18;;;;;;;0.40;0.40;;;31.20;77.60;;;;;;5113172;28;20283;-59
2022/06/17 13:13:53;;;;;;;0.20;0.20;;;31.20;78.10;;;;;;5114013;28;20168;-59
2022/06/17 13:16:28;;;;;;;0.28;0.28;;;31.20;78.10;;;;;;5114102;28;20248;-59
2022/06/17 13:19:18;;;;;;;0.30;0.30;;;31.30;76.50;;;;;;5114091;28;20156;-59
2022/06/17 13:22:08;;;;;;;0.50;0.50;;;31.40;77.30;;;;;;5114032;28;20475;-59
2022/06/17 13:24:58;;;;;;;0.10;0.10;;;31.30;75.30;;;;;;5114320;28;20165;-59
2022/06/17 13:27:34;;;;;;;0.15;0.15;;;31.30;76.60;;;;;;5114148;28;20165;-59
2022/06/17 13:30:00;;;;;;;0.20;0.20;;;31.30;76.70;;;;;;5113835;28;20211;-59
2022/06/17 13:32:31;;;;;;;0.20;0.20;;;31.30;77.40;;;;;;5113681;28;20247;-59